EuroAirport Basel-Mulhouse-Freiburg Airport

LFSB · Haut-Rhin, Grand Est, 法国

罗盘
风向 的 EuroAirport Basel-Mulhouse-Freiburg Airport 15/33
风: 1 kt, 1 beaufort

1 kt

改变
0 ft 1.000 2.000 3.000 4.000 5.000
CAVOK
METAR LFSB 132130Z AUTO VRB01KT CAVOK 13/10 Q1025 NOSIG

METAR EuroAirport Basel-Mulhouse-Freiburg Airport - LFSB/BSL

EuroAirport Basel-Mulhouse-Freiburg Airport是,法国中的大型机场。 该机场位于纬度47,59581和经度7,52483。 该机场有2条跑道: 15/33 和 7/25. 本场的ICAO机场代码为LFSB。 该机场的IATA代码为BSL。 机场在Reims FIR中。

该航空气象观测是针对EuroAirport Basel-Mulhouse-Freiburg Airport在2024年4月13日 23:30, 当地时间进行的。

机场观察

可变方向的风很小或没有风。

天气为CAVOK。这意味着在5.000 ft或MSA(最低安全高度)以下(以较高者为准)以下没有云。这也意味着没有观测到积雨云或高耸的积云,可见度为10 km 或者更多或更高。此外,不会有雾,降雨或其他重要天气。

温度和风寒是13 °C。 露点为10 °C,相对湿度为82%。 海平面上的气压为1025 hPa (QNH)。

白天

今天,太阳从06:43升起,在20:16降落。 这适用于EuroAirport Basel-Mulhouse-Freiburg Airport,世界夏令时可能有所不同。 当地时间与世界标准时间之间的时差为+2 小时。 夏令时目前正在进行中。

公司介绍

在这个机场,你可以找到飞行学校 和 飞行俱乐部。 这个机场上的公司有Flugschule Basel AG 和 Motorflug­gruppe Basel。

体会

到Vliegles.nl去找飞行课程,跳伞和其他飞行体验。 浏览页面,了解EuroAirport Basel-Mulhouse-Freiburg Airport附近所有可用的活动。 你也可以使用搜索功能来寻找你所在地附近的特定飞行课程、跳伞或其他飞行体验。

跑道

Id 标题 侧风 逆风 侧风 %
15/33 155°-335° 42 %
7/25 077°-257° 97 %

逆风成分最大的方向会被突出显示,并用于横风计算。 这并不一定意味着这个方向在使用。

温度 & 天气

温度 13 °C
露点 10 °C
相对湿度 82%
Kp-index 0 (0-9)

白天

日出
06:43 (7:04)
中午
13:30
日落
20:16

小工具

你想在你的网站上有一个关于EuroAirport Basel-Mulhouse-Freiburg Airport的当前航空天气(METAR)的小部件吗?

显示HTML代码
报告变更